Finales Départementales des Jeunes

Compétition Départementale

LENS

Le Dimanche 02 Juin 2013

Bassin de 50m

50 Dos Messieurs

Séries

Nom Année Temps Pts Club Pays
1 DELPLANQUE David 2000 0:33:40 895 RACING CLUB ARRAS FRA
2 MILLE Thomas 2001 0:34:75 822 CALAIS NATATION FRA
3 LENOIR Antoine 2000 0:36:22 747 USO BRUAY-LA-BUISSIERE FRA
4 MATUSZAK Leo 2001 0:36:38 739 STADE BÉTHUNE PÉLICAN CLUB FRA
5 DEFERNEZ Maxance 2000 0:36:54 731 CN COURRIÈRES FRA
6 TROLLÉ Pierre 2000 0:36:89 714 US MONTREUIL-SUR-MER FRA
7 DEWILDE Colin 2000 0:37:36 691 SN LENS FRA
8 DESFONTAINES Bastien 2001 0:37:46 686 STADE BÉTHUNE PÉLICAN CLUB FRA
9 WINOCK Hugo 2000 0:37:73 673 DAUPHINS ST-OMER FRA
10 JAYET Zakari 2000 0:37:94 663 STADE BÉTHUNE PÉLICAN CLUB FRA
11 LEFEBVRE Tristan 2002 0:37:99 661 STADE BÉTHUNE PÉLICAN CLUB FRA
12 BUQUET Mathis 2000 0:38:01 660 SN LENS FRA
13 PLAHIERS Nicolas 2000 0:38:08 656 SN LENS FRA
14 CORNU Louis 2000 0:38:24 649 BERCK NATATION FRA
15 FIEF Tristan 2001 0:38:73 626 RACING CLUB ARRAS FRA
16 BERNARD Erwin 2000 0:38:96 616 SN LENS FRA
17 MODESTE Jean-Guillaume 2000 0:39:47 593 SC BOULOGNE-SUR-MER FRA
18 POURCHEZ Aurelien 2001 0:39:53 590 ASL CANETONS LILLERS FRA
19 HUNET Marvin 2001 0:39:56 589 SN LENS FRA
20 PERROCHEAU Dylan 2000 0:39:87 575 USO BRUAY-LA-BUISSIERE FRA
21 GONTIER Thomas 2002 0:40:01 569 CALAIS NATATION FRA
22 LOOTEN Cyprien 2001 0:40:05 567 DAUPHINS ST-OMER FRA
23 FLEJSZAR Clement 2001 0:40:10 565 STADE BÉTHUNE PÉLICAN CLUB FRA
24 BUCAMP Edouard 2000 0:40:47 549 CN COURRIÈRES FRA
25 DOMINIK Amaury 2002 0:40:66 541 USO BRUAY-LA-BUISSIERE FRA
26 RODRIGUEZ Stéphane 2001 0:40:67 540 US MONTREUIL-SUR-MER FRA
27 DELETTRE Antoine 2000 0:40:69 539 ASL CANETONS LILLERS FRA
28 BRICE Théo 2001 0:40:92 530 STADE BÉTHUNE PÉLICAN CLUB FRA
29 DEGRAEVE-LECERF Nicolas 2002 0:41:08 523 RACING CLUB ARRAS FRA
30 DELIE Martin 2001 0:41:09 523 SC BOULOGNE-SUR-MER FRA
31 DESCAMPS Quentin 2000 0:41:16 520 HIPPO. MONTIGNY-EN-GOHELLE FRA
32 VILLAYES Julien 2000 0:41:36 511 SN LENS FRA
33 THUILLIER Hugo 2000 0:41:77 494 ASL CANETONS LILLERS FRA
34 MARLARD Tom 2002 0:41:82 492 SC BOULOGNE-SUR-MER FRA
35 MATON Stephane 2000 0:42:01 485 RACING CLUB ARRAS FRA
36 MAGNIER Arthur 2001 0:42:07 482 DAUPHINS ST-OMER FRA
37 VASSEUR Anthony 2001 0:42:24 475 DAUPHINS ST-OMER FRA
38 VANHOYE Hugo 2000 0:42:25 475 RACING CLUB ARRAS FRA
39 THULLIER Gaëtan 2001 0:42:38 470 STADE BÉTHUNE PÉLICAN CLUB FRA
40 PICHARD Matisse 2003 0:42:73 456 CALAIS NATATION FRA
41 BUFFAUT Adam 2000 0:42:76 455 SN LENS FRA
42 DELHOMEL Paul 2001 0:42:95 447 RACING CLUB ARRAS FRA
43 RENSY Lucien 2000 0:43:12 441 DAUPHINS ST-OMER FRA
44 LELEU Baptiste 2001 0:43:23 437 CALAIS NATATION FRA
45 MATEO Antonin 2000 0:43:27 435 STADE BÉTHUNE PÉLICAN CLUB FRA
46 CONSTANT Jules 2001 0:43:36 432 DAUPHINS ST-OMER FRA
47 RINGOT Louis 2001 0:43:42 429 TRITONS LUMBRES FRA
48 DEVOS Nils 2002 0:43:44 429 CALAIS NATATION FRA
49 BOULY Arthur 2003 0:43:52 426 CALAIS NATATION FRA
50 LORGNIER Cyprien 2003 0:43:69 419 TRITONS LUMBRES FRA
51 LEMAS Baptiste 2002 0:43:72 418 TRITONS LUMBRES FRA
52 MAVEAU Lucas 2003 0:43:79 415 DAUPHINS ST-OMER FRA
53 CATEAU Thomas 2002 0:43:87 412 STADE BÉTHUNE PÉLICAN CLUB FRA
54 FTULISIAK Yanis 2001 0:44:18 401 STADE BÉTHUNE PÉLICAN CLUB FRA
55 PEYTAVI Clement 2002 0:44:20 400 SN LENS FRA
56 COCQUERELLE Antoine 2000 0:44:21 400 CN COURRIÈRES FRA
57 DEY Grégoire 2002 0:44:22 400 CN COURRIÈRES FRA
58 CREPIN Baptiste 2003 0:44:27 398 STADE BÉTHUNE PÉLICAN CLUB FRA
59 PETITPREZ Paul 2001 0:44:35 395 ASL CANETONS LILLERS FRA
60 MARLARD Axel 2000 0:44:57 387 SC BOULOGNE-SUR-MER FRA
61 GEUJON Paul 2003 0:44:59 386 ASL CANETONS LILLERS FRA
62 RODRIGUES Simon 2000 0:44:60 386 ASL CANETONS LILLERS FRA
63 LOUVET Loïc 2001 0:44:61 385 CALAIS NATATION FRA
64 CADET Thomas 2002 0:44:67 383 TRITONS LUMBRES FRA
65 FAVIER Alexandre 2000 0:44:69 382 TRITONS LUMBRES FRA
66 BONNISSANT Maxime 2002 0:44:74 381 STADE BÉTHUNE PÉLICAN CLUB FRA
67 SEGRET Marceau 2002 0:44:93 374 BERCK NATATION FRA
68 FONTAINE Gauthier 2001 0:44:95 373 SN LENS FRA
69 BOUREL Pierre 2000 0:45:23 363 STADE BÉTHUNE PÉLICAN CLUB FRA
70 LEROY Remi 2001 0:45:71 347 CN DIVION FRA
71 LESERT Vincent 2003 0:45:96 338 SN LENS FRA
72 BEAUVOIS Nicola 2001 0:46:19 331 STADE BÉTHUNE PÉLICAN CLUB FRA
73 BONHOMME Célien 2002 0:46:35 325 RACING CLUB ARRAS FRA
74 LEQUEUX Antonin 2001 0:46:60 317 US MONTREUIL-SUR-MER FRA
75 CAMPAGNE Nathan 2003 0:46:83 310 STADE BÉTHUNE PÉLICAN CLUB FRA
76 BUTEAUX Elie 2002 0:46:88 308 STADE BÉTHUNE PÉLICAN CLUB FRA
77 MORMENTYN Paul 2002 0:47:91 276 CALAIS NATATION FRA
78 OTOGBE Damien 2003 0:47:99 273 STADE BÉTHUNE PÉLICAN CLUB FRA
79 LEPILLET Grégoire 2002 0:47:99 273 STADE BÉTHUNE PÉLICAN CLUB FRA
80 FROISSART Alexandre 2004 0:48:06 271 US MONTREUIL-SUR-MER FRA
81 BASSET Maxime 2003 0:48:24 266 STADE BÉTHUNE PÉLICAN CLUB FRA
82 BELLIVIER Tom 2002 0:48:45 259 DAUPHINS ST-OMER FRA
83 ROCHE-MATHON Timothee 2003 0:48:93 245 RACING CLUB ARRAS FRA
84 DEWAELE Oscar 2003 0:49:08 241 ASL CANETONS LILLERS FRA
85 DUBRULLE Benoit 2002 0:49:17 239 ASL CANETONS LILLERS FRA
86 BOUDIER Louka 2002 0:49:26 236 DAUPHINS ST-OMER FRA
87 GIVERN Enzo 2004 0:49:50 229 BERCK NATATION FRA
88 LAROCHE Nathan 2003 0:49:55 228 STADE BÉTHUNE PÉLICAN CLUB FRA
89 DUFOUR Alexis 2002 0:49:56 228 ASL CANETONS LILLERS FRA
90 FIRLEJ Thibaut 2003 0:49:65 225 RACING CLUB ARRAS FRA
91 CAMBOUR Martin 2003 0:50:03 215 RACING CLUB ARRAS FRA
92 BLERVAQUE Felicien 2003 0:50:23 210 STADE BÉTHUNE PÉLICAN CLUB FRA
93 BARATTE Thomas 2004 0:50:26 209 RACING CLUB ARRAS FRA
94 DUPREYS Gauthier 2004 0:50:81 194 DAUPHINS ST-OMER FRA
95 ROUANET Eliott 2004 0:51:00 190 CALAIS NATATION FRA
96 BERRABAH Yanis 2003 0:51:03 189 CN HÉNIN-BEAUMONT FRA
97 GRANADO Hugo 2002 0:51:14 186 CN COURRIÈRES FRA
98 PANEL Thibault 2002 0:51:34 181 ASL CANETONS LILLERS FRA
99 DUBART Anthony 2002 0:51:42 179 SN LENS FRA
100 NORMAND Jeremy 2003 0:51:60 175 DAUPHINS ST-OMER FRA
101 DE SAINTE MARESVILLE Marius 2003 0:51:79 170 US MONTREUIL-SUR-MER FRA
102 LEMAIRE Axel 2003 0:52:17 161 ASL CANETONS LILLERS FRA
103 BOUT Valentin 2001 0:52:67 150 DAUPHINS ST-OMER FRA
104 LEVAILLANT Simon 2003 0:52:86 146 CALAIS NATATION FRA
105 TUILLIEZ Giovanny 2002 0:53:37 134 DAUPHINS ST-OMER FRA
106 MAILLY Hugo 2002 0:53:52 131 BERCK NATATION FRA
107 HENRY Louis 2002 0:53:66 128 RACING CLUB ARRAS FRA
108 FRANEK Remi 2004 0:54:08 120 SN LENS FRA
109 CASTILLE Kenzo 2004 0:54:12 119 AUCHEL NATATION FRA
110 BECQUET Melvin 2005 0:54:21 117 US MONTREUIL-SUR-MER FRA
111 NOTEBAERT Romain 2004 0:54:41 113 SN LENS FRA
112 GLANGETAS Romain 2003 0:54:53 111 CALAIS NATATION FRA
113 GUILBERT Enzo 2002 0:55:20 98 AUCHEL NATATION FRA
114 COLLIER Tom 2005 0:56:23 80 CALAIS NATATION FRA
115 BORZUCHOWSKI Ilhan 2004 0:56:62 74 CN COURRIÈRES FRA
116 HENOCQ Flavien 2004 0:57:67 59 RACING CLUB ARRAS FRA
117 LEMAITRE Marco 2004 0:58:78 44 SN LENS FRA
118 CANONNE Titouan 2004 0:59:89 32 SC BOULOGNE-SUR-MER FRA
119 LENEL Thomas 2003 1:00:05 30 SC BOULOGNE-SUR-MER FRA
120 FIEVET Rodolphe 2003 1:00:87 22 USO BRUAY-LA-BUISSIERE FRA
RACING CLUB ARRAS